Airfield :
LOGIN :

Register | Disclaimer

   EN    FR    IT 

 










Legend :    VFR   Marginal VFR   IFR   Intensive IFR   Very Intensive IFR
Visi :
Ceiling :
>= 8 km
>= 3000ft
5 to 8 km
1000 to 3000 ft
1500m to 5 km
500 to 1000 ft
800 to 1500m
200 to 500 ft
< 800m
< 200 ft
Symbols :   Thunderstorms  Fog  Heavy snow  Heavy precipitations  Wind > 20 kt
SIGMETs :     Misc.  Thunderstorms  Icing  Turbulence  Mountain Waves  Volcanic Ashes






- Airport Elevation : 665 ft
- IATA code : NOC


EIKN - Connaught / Knock- Ireland West

CURRENT METAR :
  • 201200Z 13012KT 100V170 9999 SCT003 BKN036 06/06 Q0998 NOSIG

EXPIRED METARs :
  • 201130Z 13011KT 8000 -RA BKN004 BKN032 06/06 Q0999 NOSIG
  • 201100Z 14011KT 9999 -RA BKN005 BKN032 06/06 Q0999 NOSIG
  • 201030Z 13013KT 9999 SCT004 BKN034 06/06 Q0999 NOSIG
  • 201000Z 13013KT 100V170 9000 -RA SCT004 BKN042 06/05 Q0999 NOSIG
  • 200930Z 13012KT 100V160 9999 SCT004 BKN048 05/04 Q0998 NOSIG

TAF TAF EIKN
Valid from the 20 at 12:00 until the 21 at 12:00 UTC


201100Z 2012/2112 13013KT 9999 SCT005 BKN028
TEMPO 2012/2023 3000 SHRA BKN005 SCT018CB
BECMG 2019/2021 11017G28KT
TEMPO 2023/2102 5000 -SHRA BKN008
TEMPO 2102/2110 3000 SHRA BKN005
BECMG 2104/2106 11013KT
TEMPO 2110/2112 5000 -SHRA BKN008
PROB30
TEMPO 2110/2112 3000 BKN005



MET'MAP, your aeronautical weather chart ! - Copyright ORBIFLY December 2007 - Disclaimer

ORBIFLY MET'MAP TEAM :

Programming & Development : Alexandra Zaïnal
Concept & Development : Baudouin d'Aumeries
Co-Development & Prog : Marc-Olivier Méhu
Technical & hardware support : Manuel Goepfert

Contact : metmap@orbifly.com




SOURCES & CREDITS :

   NOAA